sensor_id;sensor_type;location;lat;lon;timestamp;temperature;humidity
35240;DHT22;21376;50.954;4.716;2023-11-18T00:03:37;5.90;99.90
35240;DHT22;21376;50.954;4.716;2023-11-18T00:06:14;6.20;99.90
35240;DHT22;21376;50.954;4.716;2023-11-18T00:08:44;5.80;99.90
35240;DHT22;21376;50.954;4.716;2023-11-18T00:11:11;5.80;99.90
35240;DHT22;21376;50.954;4.716;2023-11-18T00:13:37;5.80;99.90
35240;DHT22;21376;50.954;4.716;2023-11-18T00:16:08;6.00;99.90
35240;DHT22;21376;50.954;4.716;2023-11-18T00:18:39;5.80;99.90
35240;DHT22;21376;50.954;4.716;2023-11-18T00:21:09;5.70;99.90
35240;DHT22;21376;50.954;4.716;2023-11-18T00:23:38;5.80;99.90
35240;DHT22;21376;50.954;4.716;2023-11-18T00:26:07;5.60;99.90
35240;DHT22;21376;50.954;4.716;2023-11-18T00:28:38;5.90;99.90
35240;DHT22;21376;50.954;4.716;2023-11-18T00:31:15;6.10;99.90
35240;DHT22;21376;50.954;4.716;2023-11-18T00:33:54;6.00;99.90
35240;DHT22;21376;50.954;4.716;2023-11-18T00:36:23;5.90;99.90
35240;DHT22;21376;50.954;4.716;2023-11-18T00:38:52;6.20;99.90
35240;DHT22;21376;50.954;4.716;2023-11-18T00:41:18;6.00;99.90
35240;DHT22;21376;50.954;4.716;2023-11-18T00:43:47;6.10;99.90
35240;DHT22;21376;50.954;4.716;2023-11-18T00:46:15;6.10;99.90
35240;DHT22;21376;50.954;4.716;2023-11-18T00:48:44;6.00;99.90
35240;DHT22;21376;50.954;4.716;2023-11-18T00:51:25;5.90;99.90
35240;DHT22;21376;50.954;4.716;2023-11-18T00:53:56;5.80;99.90
35240;DHT22;21376;50.954;4.716;2023-11-18T00:56:28;5.80;99.90
35240;DHT22;21376;50.954;4.716;2023-11-18T00:59:27;6.00;99.90
35240;DHT22;21376;50.954;4.716;2023-11-18T01:01:56;5.70;99.90
35240;DHT22;21376;50.954;4.716;2023-11-18T01:04:22;5.80;99.90
35240;DHT22;21376;50.954;4.716;2023-11-18T01:06:48;5.70;99.90
35240;DHT22;21376;50.954;4.716;2023-11-18T01:09:15;5.90;99.90
35240;DHT22;21376;50.954;4.716;2023-11-18T01:11:44;6.10;99.90
35240;DHT22;21376;50.954;4.716;2023-11-18T01:14:11;6.20;99.90
35240;DHT22;21376;50.954;4.716;2023-11-18T01:16:39;6.20;99.90
35240;DHT22;21376;50.954;4.716;2023-11-18T01:19:08;6.20;99.90
35240;DHT22;21376;50.954;4.716;2023-11-18T01:22:07;6.20;99.90
35240;DHT22;21376;50.954;4.716;2023-11-18T01:24:45;6.00;99.90
35240;DHT22;21376;50.954;4.716;2023-11-18T01:30:19;6.10;99.90
35240;DHT22;21376;50.954;4.716;2023-11-18T01:32:48;5.90;99.90
35240;DHT22;21376;50.954;4.716;2023-11-18T01:35:14;6.10;99.90
35240;DHT22;21376;50.954;4.716;2023-11-18T01:37:43;6.20;99.90
35240;DHT22;21376;50.954;4.716;2023-11-18T01:40:22;6.10;99.90
35240;DHT22;21376;50.954;4.716;2023-11-18T01:42:59;6.20;99.90
35240;DHT22;21376;50.954;4.716;2023-11-18T01:45:28;6.20;99.90
35240;DHT22;21376;50.954;4.716;2023-11-18T01:47:57;6.30;99.90
35240;DHT22;21376;50.954;4.716;2023-11-18T01:50:23;6.20;99.90
35240;DHT22;21376;50.954;4.716;2023-11-18T01:52:52;6.10;99.90
35240;DHT22;21376;50.954;4.716;2023-11-18T01:55:20;6.10;99.90
35240;DHT22;21376;50.954;4.716;2023-11-18T01:57:48;6.10;99.90
35240;DHT22;21376;50.954;4.716;2023-11-18T02:00:20;6.20;99.90
35240;DHT22;21376;50.954;4.716;2023-11-18T02:02:46;6.20;99.90
35240;DHT22;21376;50.954;4.716;2023-11-18T02:05:13;6.30;99.90
35240;DHT22;21376;50.954;4.716;2023-11-18T02:07:40;6.20;99.90
35240;DHT22;21376;50.954;4.716;2023-11-18T02:10:23;6.10;99.90
35240;DHT22;21376;50.954;4.716;2023-11-18T02:13:08;5.90;99.90
35240;DHT22;21376;50.954;4.716;2023-11-18T02:15:39;5.80;99.90
35240;DHT22;21376;50.954;4.716;2023-11-18T02:18:09;6.10;99.90
35240;DHT22;21376;50.954;4.716;2023-11-18T02:20:36;6.20;99.90
35240;DHT22;21376;50.954;4.716;2023-11-18T02:23:03;6.10;99.90
35240;DHT22;21376;50.954;4.716;2023-11-18T02:25:33;6.20;99.90
35240;DHT22;21376;50.954;4.716;2023-11-18T02:28:00;6.10;99.90
35240;DHT22;21376;50.954;4.716;2023-11-18T02:30:29;6.00;99.90
35240;DHT22;21376;50.954;4.716;2023-11-18T02:36:26;6.00;99.90
35240;DHT22;21376;50.954;4.716;2023-11-18T02:39:21;6.20;99.90
35240;DHT22;21376;50.954;4.716;2023-11-18T02:41:51;6.30;99.90
35240;DHT22;21376;50.954;4.716;2023-11-18T02:44:23;6.30;99.90
35240;DHT22;21376;50.954;4.716;2023-11-18T02:46:54;6.30;99.90
35240;DHT22;21376;50.954;4.716;2023-11-18T02:49:21;6.30;99.90
35240;DHT22;21376;50.954;4.716;2023-11-18T02:51:52;6.40;99.90
35240;DHT22;21376;50.954;4.716;2023-11-18T02:54:22;6.50;99.90
35240;DHT22;21376;50.954;4.716;2023-11-18T02:56:48;6.50;99.90
35240;DHT22;21376;50.954;4.716;2023-11-18T02:59:17;6.50;99.90
35240;DHT22;21376;50.954;4.716;2023-11-18T03:01:46;6.40;99.90
35240;DHT22;21376;50.954;4.716;2023-11-18T03:04:15;6.10;99.90
35240;DHT22;21376;50.954;4.716;2023-11-18T03:07:01;6.20;99.90
35240;DHT22;21376;50.954;4.716;2023-11-18T03:09:26;6.40;99.90
35240;DHT22;21376;50.954;4.716;2023-11-18T03:11:57;6.30;99.90
35240;DHT22;21376;50.954;4.716;2023-11-18T03:14:31;6.40;99.90
35240;DHT22;21376;50.954;4.716;2023-11-18T03:17:01;6.20;99.90
35240;DHT22;21376;50.954;4.716;2023-11-18T03:19:29;6.00;99.90
35240;DHT22;21376;50.954;4.716;2023-11-18T03:21:57;6.10;99.90
35240;DHT22;21376;50.954;4.716;2023-11-18T03:24:25;6.30;99.90
35240;DHT22;21376;50.954;4.716;2023-11-18T03:27:03;6.40;99.90
35240;DHT22;21376;50.954;4.716;2023-11-18T03:29:50;6.60;99.90
35240;DHT22;21376;50.954;4.716;2023-11-18T03:32:18;6.60;99.90
35240;DHT22;21376;50.954;4.716;2023-11-18T03:37:37;6.60;99.90
35240;DHT22;21376;50.954;4.716;2023-11-18T03:40:15;6.60;99.90
35240;DHT22;21376;50.954;4.716;2023-11-18T03:42:55;6.50;99.90
35240;DHT22;21376;50.954;4.716;2023-11-18T03:45:27;6.50;99.90
35240;DHT22;21376;50.954;4.716;2023-11-18T03:47:56;6.60;99.90
35240;DHT22;21376;50.954;4.716;2023-11-18T03:50:22;6.70;99.90
35240;DHT22;21376;50.954;4.716;2023-11-18T03:52:51;6.70;99.90
35240;DHT22;21376;50.954;4.716;2023-11-18T03:55:23;6.70;99.90
35240;DHT22;21376;50.954;4.716;2023-11-18T03:57:52;6.70;99.90
35240;DHT22;21376;50.954;4.716;2023-11-18T04:00:23;6.80;99.90
35240;DHT22;21376;50.954;4.716;2023-11-18T04:02:59;6.90;99.90
35240;DHT22;21376;50.954;4.716;2023-11-18T04:05:25;7.00;99.90
35240;DHT22;21376;50.954;4.716;2023-11-18T04:07:51;7.10;99.90
35240;DHT22;21376;50.954;4.716;2023-11-18T04:10:21;7.00;99.90
35240;DHT22;21376;50.954;4.716;2023-11-18T04:12:54;7.10;99.90
35240;DHT22;21376;50.954;4.716;2023-11-18T04:15:20;7.20;99.90
35240;DHT22;21376;50.954;4.716;2023-11-18T04:17:49;7.10;99.90
35240;DHT22;21376;50.954;4.716;2023-11-18T04:20:18;7.00;99.90
35240;DHT22;21376;50.954;4.716;2023-11-18T04:22:47;7.00;99.90
35240;DHT22;21376;50.954;4.716;2023-11-18T04:25:15;7.00;99.90
35240;DHT22;21376;50.954;4.716;2023-11-18T04:27:44;7.20;99.90
35240;DHT22;21376;50.954;4.716;2023-11-18T04:30:14;7.30;99.90
35240;DHT22;21376;50.954;4.716;2023-11-18T04:32:40;7.10;99.90
35240;DHT22;21376;50.954;4.716;2023-11-18T04:35:08;7.10;99.90
35240;DHT22;21376;50.954;4.716;2023-11-18T04:55:35;7.20;99.90
35240;DHT22;21376;50.954;4.716;2023-11-18T04:58:05;7.10;99.90
35240;DHT22;21376;50.954;4.716;2023-11-18T05:00:33;6.90;99.90
35240;DHT22;21376;50.954;4.716;2023-11-18T05:03:10;7.00;99.90
35240;DHT22;21376;50.954;4.716;2023-11-18T05:05:42;7.10;99.90
35240;DHT22;21376;50.954;4.716;2023-11-18T05:08:18;7.20;99.90
35240;DHT22;21376;50.954;4.716;2023-11-18T05:14:08;7.10;99.90
35240;DHT22;21376;50.954;4.716;2023-11-18T05:16:40;6.80;99.90
35240;DHT22;21376;50.954;4.716;2023-11-18T05:19:18;7.00;99.90
35240;DHT22;21376;50.954;4.716;2023-11-18T05:21:44;7.10;99.90
35240;DHT22;21376;50.954;4.716;2023-11-18T05:24:17;7.30;99.90
35240;DHT22;21376;50.954;4.716;2023-11-18T05:26:51;7.40;99.90
35240;DHT22;21376;50.954;4.716;2023-11-18T05:29:21;7.20;99.90
35240;DHT22;21376;50.954;4.716;2023-11-18T05:31:57;7.10;99.90
35240;DHT22;21376;50.954;4.716;2023-11-18T05:34:40;7.10;99.90
35240;DHT22;21376;50.954;4.716;2023-11-18T05:37:09;7.30;99.90
35240;DHT22;21376;50.954;4.716;2023-11-18T05:39:39;7.20;99.90
35240;DHT22;21376;50.954;4.716;2023-11-18T05:42:12;7.00;99.90
35240;DHT22;21376;50.954;4.716;2023-11-18T05:44:39;7.10;99.90
35240;DHT22;21376;50.954;4.716;2023-11-18T05:47:08;7.00;99.90
35240;DHT22;21376;50.954;4.716;2023-11-18T05:49:40;7.50;99.90
35240;DHT22;21376;50.954;4.716;2023-11-18T05:52:09;7.50;99.90
35240;DHT22;21376;50.954;4.716;2023-11-18T06:06:27;7.70;99.90
35240;DHT22;21376;50.954;4.716;2023-11-18T06:08:56;7.80;99.90
35240;DHT22;21376;50.954;4.716;2023-11-18T06:11:37;7.90;99.90
35240;DHT22;21376;50.954;4.716;2023-11-18T06:14:17;7.60;99.90
35240;DHT22;21376;50.954;4.716;2023-11-18T06:16:50;7.30;99.90
35240;DHT22;21376;50.954;4.716;2023-11-18T06:19:19;7.50;99.90
35240;DHT22;21376;50.954;4.716;2023-11-18T06:21:48;7.40;99.90
35240;DHT22;21376;50.954;4.716;2023-11-18T06:24:14;7.30;99.90
35240;DHT22;21376;50.954;4.716;2023-11-18T06:26:40;7.50;99.90
35240;DHT22;21376;50.954;4.716;2023-11-18T06:29:09;7.70;99.90
35240;DHT22;21376;50.954;4.716;2023-11-18T06:31:36;7.80;99.90
35240;DHT22;21376;50.954;4.716;2023-11-18T06:34:04;8.00;99.90
35240;DHT22;21376;50.954;4.716;2023-11-18T06:36:29;7.90;99.90
35240;DHT22;21376;50.954;4.716;2023-11-18T06:39:13;7.90;99.90
35240;DHT22;21376;50.954;4.716;2023-11-18T06:41:42;7.60;99.90
35240;DHT22;21376;50.954;4.716;2023-11-18T06:44:41;7.50;99.90
35240;DHT22;21376;50.954;4.716;2023-11-18T06:47:10;7.30;99.90
35240;DHT22;21376;50.954;4.716;2023-11-18T06:49:43;7.20;99.90
35240;DHT22;21376;50.954;4.716;2023-11-18T06:52:12;7.20;99.90
35240;DHT22;21376;50.954;4.716;2023-11-18T06:54:41;7.30;99.90
35240;DHT22;21376;50.954;4.716;2023-11-18T06:57:10;7.40;99.90
35240;DHT22;21376;50.954;4.716;2023-11-18T06:59:38;7.40;99.90
35240;DHT22;21376;50.954;4.716;2023-11-18T07:02:06;7.40;99.90
35240;DHT22;21376;50.954;4.716;2023-11-18T07:09:26;7.60;99.90
35240;DHT22;21376;50.954;4.716;2023-11-18T07:11:54;7.80;99.90
35240;DHT22;21376;50.954;4.716;2023-11-18T07:14:21;7.80;99.90
35240;DHT22;21376;50.954;4.716;2023-11-18T07:16:50;7.90;99.90
35240;DHT22;21376;50.954;4.716;2023-11-18T07:19:16;8.00;99.90
35240;DHT22;21376;50.954;4.716;2023-11-18T07:22:00;7.90;99.90
35240;DHT22;21376;50.954;4.716;2023-11-18T07:24:56;7.80;99.90
35240;DHT22;21376;50.954;4.716;2023-11-18T07:27:26;7.80;99.90
35240;DHT22;21376;50.954;4.716;2023-11-18T07:29:52;7.70;99.90
35240;DHT22;21376;50.954;4.716;2023-11-18T07:32:27;7.90;99.90
35240;DHT22;21376;50.954;4.716;2023-11-18T07:35:07;8.10;99.90
35240;DHT22;21376;50.954;4.716;2023-11-18T07:37:38;8.10;99.90
35240;DHT22;21376;50.954;4.716;2023-11-18T07:40:07;8.10;99.90
35240;DHT22;21376;50.954;4.716;2023-11-18T07:42:37;8.10;99.90
35240;DHT22;21376;50.954;4.716;2023-11-18T07:45:06;7.90;99.90
35240;DHT22;21376;50.954;4.716;2023-11-18T07:47:48;7.70;99.90
35240;DHT22;21376;50.954;4.716;2023-11-18T07:50:37;7.80;99.90
35240;DHT22;21376;50.954;4.716;2023-11-18T07:53:10;7.70;99.90
35240;DHT22;21376;50.954;4.716;2023-11-18T07:55:40;7.80;99.90
35240;DHT22;21376;50.954;4.716;2023-11-18T07:58:10;7.80;99.90
35240;DHT22;21376;50.954;4.716;2023-11-18T08:00:45;7.80;99.90
35240;DHT22;21376;50.954;4.716;2023-11-18T08:03:11;7.80;99.90
35240;DHT22;21376;50.954;4.716;2023-11-18T08:05:46;7.80;99.90
35240;DHT22;21376;50.954;4.716;2023-11-18T08:08:14;7.90;99.90
35240;DHT22;21376;50.954;4.716;2023-11-18T08:10:44;7.90;99.90
35240;DHT22;21376;50.954;4.716;2023-11-18T08:13:13;7.80;99.90
35240;DHT22;21376;50.954;4.716;2023-11-18T08:15:40;7.80;99.90
35240;DHT22;21376;50.954;4.716;2023-11-18T08:18:09;7.90;99.90
35240;DHT22;21376;50.954;4.716;2023-11-18T08:20:44;7.90;99.90
35240;DHT22;21376;50.954;4.716;2023-11-18T08:23:13;7.90;99.90
35240;DHT22;21376;50.954;4.716;2023-11-18T08:25:42;7.80;99.90
35240;DHT22;21376;50.954;4.716;2023-11-18T08:28:09;8.00;99.90
35240;DHT22;21376;50.954;4.716;2023-11-18T08:30:38;7.80;99.90
35240;DHT22;21376;50.954;4.716;2023-11-18T08:33:06;8.00;99.90
35240;DHT22;21376;50.954;4.716;2023-11-18T08:35:37;7.90;99.90
35240;DHT22;21376;50.954;4.716;2023-11-18T08:38:14;7.90;99.90
35240;DHT22;21376;50.954;4.716;2023-11-18T08:40:43;8.00;99.90
35240;DHT22;21376;50.954;4.716;2023-11-18T08:43:12;8.10;99.90
35240;DHT22;21376;50.954;4.716;2023-11-18T08:45:56;8.10;99.90
35240;DHT22;21376;50.954;4.716;2023-11-18T08:48:22;8.10;99.90
35240;DHT22;21376;50.954;4.716;2023-11-18T09:12:50;7.90;99.90
35240;DHT22;21376;50.954;4.716;2023-11-18T09:15:20;7.90;99.90
35240;DHT22;21376;50.954;4.716;2023-11-18T09:17:55;8.00;99.90
35240;DHT22;21376;50.954;4.716;2023-11-18T09:20:23;8.00;99.90
35240;DHT22;21376;50.954;4.716;2023-11-18T09:22:50;8.00;99.90
35240;DHT22;21376;50.954;4.716;2023-11-18T09:25:22;8.20;99.90
35240;DHT22;21376;50.954;4.716;2023-11-18T09:27:48;8.20;99.90
35240;DHT22;21376;50.954;4.716;2023-11-18T09:30:14;8.20;99.90
35240;DHT22;21376;50.954;4.716;2023-11-18T09:32:46;8.20;99.90
35240;DHT22;21376;50.954;4.716;2023-11-18T09:35:13;8.20;99.90
35240;DHT22;21376;50.954;4.716;2023-11-18T09:37:39;8.20;99.90
35240;DHT22;21376;50.954;4.716;2023-11-18T09:40:13;8.30;99.90
35240;DHT22;21376;50.954;4.716;2023-11-18T09:42:41;8.20;99.90
35240;DHT22;21376;50.954;4.716;2023-11-18T09:45:13;8.20;99.90
35240;DHT22;21376;50.954;4.716;2023-11-18T09:47:48;8.30;99.90
35240;DHT22;21376;50.954;4.716;2023-11-18T09:50:25;8.40;99.90
35240;DHT22;21376;50.954;4.716;2023-11-18T09:52:54;8.60;99.90
35240;DHT22;21376;50.954;4.716;2023-11-18T09:55:37;8.40;99.90
35240;DHT22;21376;50.954;4.716;2023-11-18T09:58:15;8.30;99.90
35240;DHT22;21376;50.954;4.716;2023-11-18T10:00:41;8.30;99.90
35240;DHT22;21376;50.954;4.716;2023-11-18T10:03:10;8.20;99.90
35240;DHT22;21376;50.954;4.716;2023-11-18T10:05:45;8.30;99.90
35240;DHT22;21376;50.954;4.716;2023-11-18T10:08:12;8.20;99.90
35240;DHT22;21376;50.954;4.716;2023-11-18T10:10:45;8.20;99.90
35240;DHT22;21376;50.954;4.716;2023-11-18T10:13:14;8.20;99.90
35240;DHT22;21376;50.954;4.716;2023-11-18T10:15:54;8.20;99.90
35240;DHT22;21376;50.954;4.716;2023-11-18T10:18:41;8.30;99.90
35240;DHT22;21376;50.954;4.716;2023-11-18T10:21:41;8.40;99.90
35240;DHT22;21376;50.954;4.716;2023-11-18T10:24:16;8.60;99.90
35240;DHT22;21376;50.954;4.716;2023-11-18T10:26:58;8.80;99.90
35240;DHT22;21376;50.954;4.716;2023-11-18T10:29:28;8.70;99.90
35240;DHT22;21376;50.954;4.716;2023-11-18T10:32:06;8.40;99.90
35240;DHT22;21376;50.954;4.716;2023-11-18T10:34:45;8.40;99.90
35240;DHT22;21376;50.954;4.716;2023-11-18T10:37:10;8.60;99.90
35240;DHT22;21376;50.954;4.716;2023-11-18T10:39:36;8.50;99.90
35240;DHT22;21376;50.954;4.716;2023-11-18T10:42:03;8.50;99.90
35240;DHT22;21376;50.954;4.716;2023-11-18T10:44:32;8.40;99.90
35240;DHT22;21376;50.954;4.716;2023-11-18T10:46:58;8.30;99.90
35240;DHT22;21376;50.954;4.716;2023-11-18T10:49:32;8.40;99.90
35240;DHT22;21376;50.954;4.716;2023-11-18T10:52:05;8.40;99.90
35240;DHT22;21376;50.954;4.716;2023-11-18T10:54:36;8.40;99.90
35240;DHT22;21376;50.954;4.716;2023-11-18T10:57:05;8.30;99.90
35240;DHT22;21376;50.954;4.716;2023-11-18T10:59:34;8.40;99.90
35240;DHT22;21376;50.954;4.716;2023-11-18T11:02:18;8.50;99.90
35240;DHT22;21376;50.954;4.716;2023-11-18T11:04:47;8.50;99.90
35240;DHT22;21376;50.954;4.716;2023-11-18T11:07:18;8.40;99.90
35240;DHT22;21376;50.954;4.716;2023-11-18T11:09:48;8.50;99.90
35240;DHT22;21376;50.954;4.716;2023-11-18T11:12:18;8.50;99.90
35240;DHT22;21376;50.954;4.716;2023-11-18T11:15:08;8.50;99.90
35240;DHT22;21376;50.954;4.716;2023-11-18T11:18:08;8.60;99.90
35240;DHT22;21376;50.954;4.716;2023-11-18T11:20:57;8.70;99.90
35240;DHT22;21376;50.954;4.716;2023-11-18T11:26:51;8.80;99.90
35240;DHT22;21376;50.954;4.716;2023-11-18T11:29:32;8.80;99.90
35240;DHT22;21376;50.954;4.716;2023-11-18T11:32:18;8.60;99.90
35240;DHT22;21376;50.954;4.716;2023-11-18T11:35:01;8.70;99.90
35240;DHT22;21376;50.954;4.716;2023-11-18T11:37:37;8.70;99.90
35240;DHT22;21376;50.954;4.716;2023-11-18T11:40:05;8.60;99.90
35240;DHT22;21376;50.954;4.716;2023-11-18T11:42:35;8.70;99.90
35240;DHT22;21376;50.954;4.716;2023-11-18T11:45:21;8.60;99.90
35240;DHT22;21376;50.954;4.716;2023-11-18T11:47:51;8.70;99.90
35240;DHT22;21376;50.954;4.716;2023-11-18T11:50:25;8.60;99.90
35240;DHT22;21376;50.954;4.716;2023-11-18T11:53:07;8.60;99.90
35240;DHT22;21376;50.954;4.716;2023-11-18T11:55:53;8.60;99.90
35240;DHT22;21376;50.954;4.716;2023-11-18T11:58:32;8.80;99.90
35240;DHT22;21376;50.954;4.716;2023-11-18T12:01:46;8.70;99.90
35240;DHT22;21376;50.954;4.716;2023-11-18T12:03:54;8.70;99.90
35240;DHT22;21376;50.954;4.716;2023-11-18T12:06:42;8.80;99.90
35240;DHT22;21376;50.954;4.716;2023-11-18T12:09:11;8.80;99.90
35240;DHT22;21376;50.954;4.716;2023-11-18T12:11:47;8.80;99.90
35240;DHT22;21376;50.954;4.716;2023-11-18T12:14:20;9.00;99.90
35240;DHT22;21376;50.954;4.716;2023-11-18T12:17:14;8.80;99.90
35240;DHT22;21376;50.954;4.716;2023-11-18T12:20:05;9.00;99.90
35240;DHT22;21376;50.954;4.716;2023-11-18T12:23:05;8.90;99.90
35240;DHT22;21376;50.954;4.716;2023-11-18T12:26:38;8.90;99.90
35240;DHT22;21376;50.954;4.716;2023-11-18T12:28:54;8.80;99.90
35240;DHT22;21376;50.954;4.716;2023-11-18T12:31:38;8.80;99.90
35240;DHT22;21376;50.954;4.716;2023-11-18T12:34:05;8.80;99.90
35240;DHT22;21376;50.954;4.716;2023-11-18T12:36:55;9.00;99.90
35240;DHT22;21376;50.954;4.716;2023-11-18T12:39:59;8.90;99.90
35240;DHT22;21376;50.954;4.716;2023-11-18T12:43:01;8.90;99.90
35240;DHT22;21376;50.954;4.716;2023-11-18T12:48:47;8.90;99.90
35240;DHT22;21376;50.954;4.716;2023-11-18T12:51:33;8.90;99.90
35240;DHT22;21376;50.954;4.716;2023-11-18T12:54:08;8.90;99.90
35240;DHT22;21376;50.954;4.716;2023-11-18T12:56:34;8.90;99.90
35240;DHT22;21376;50.954;4.716;2023-11-18T12:59:03;8.80;99.90
35240;DHT22;21376;50.954;4.716;2023-11-18T13:01:34;8.90;99.90
35240;DHT22;21376;50.954;4.716;2023-11-18T13:04:04;8.90;99.90
35240;DHT22;21376;50.954;4.716;2023-11-18T13:06:51;8.90;99.90
35240;DHT22;21376;50.954;4.716;2023-11-18T13:09:22;9.00;99.90
35240;DHT22;21376;50.954;4.716;2023-11-18T13:15:29;8.90;99.90
35240;DHT22;21376;50.954;4.716;2023-11-18T13:18:01;8.90;99.90
35240;DHT22;21376;50.954;4.716;2023-11-18T13:20:31;9.00;99.90
35240;DHT22;21376;50.954;4.716;2023-11-18T13:23:10;8.90;99.90
35240;DHT22;21376;50.954;4.716;2023-11-18T13:25:47;9.00;99.90
35240;DHT22;21376;50.954;4.716;2023-11-18T13:28:13;8.90;99.90
35240;DHT22;21376;50.954;4.716;2023-11-18T13:30:43;9.00;99.90
35240;DHT22;21376;50.954;4.716;2023-11-18T13:33:15;9.00;99.90
35240;DHT22;21376;50.954;4.716;2023-11-18T13:35:53;9.00;99.90
35240;DHT22;21376;50.954;4.716;2023-11-18T13:38:22;9.10;99.90
35240;DHT22;21376;50.954;4.716;2023-11-18T13:40:51;9.20;99.90
35240;DHT22;21376;50.954;4.716;2023-11-18T13:43:43;9.20;99.90
35240;DHT22;21376;50.954;4.716;2023-11-18T13:46:22;9.10;99.90
35240;DHT22;21376;50.954;4.716;2023-11-18T13:48:49;9.20;99.90
35240;DHT22;21376;50.954;4.716;2023-11-18T13:51:19;9.20;99.90
35240;DHT22;21376;50.954;4.716;2023-11-18T13:53:48;9.10;99.90
35240;DHT22;21376;50.954;4.716;2023-11-18T13:56:18;9.20;99.90
35240;DHT22;21376;50.954;4.716;2023-11-18T13:58:47;9.20;99.90
35240;DHT22;21376;50.954;4.716;2023-11-18T14:01:16;9.20;99.90
35240;DHT22;21376;50.954;4.716;2023-11-18T14:03:45;9.30;99.90
35240;DHT22;21376;50.954;4.716;2023-11-18T14:06:13;9.20;99.90
35240;DHT22;21376;50.954;4.716;2023-11-18T14:08:45;9.20;99.90
35240;DHT22;21376;50.954;4.716;2023-11-18T14:11:12;9.30;99.90
35240;DHT22;21376;50.954;4.716;2023-11-18T14:21:56;9.30;99.90
35240;DHT22;21376;50.954;4.716;2023-11-18T14:24:23;9.30;99.90
35240;DHT22;21376;50.954;4.716;2023-11-18T14:26:56;9.30;99.90
35240;DHT22;21376;50.954;4.716;2023-11-18T14:29:44;9.30;99.90
35240;DHT22;21376;50.954;4.716;2023-11-18T14:32:13;9.30;99.90
35240;DHT22;21376;50.954;4.716;2023-11-18T14:34:39;9.30;99.90
35240;DHT22;21376;50.954;4.716;2023-11-18T14:37:07;9.30;99.90
35240;DHT22;21376;50.954;4.716;2023-11-18T14:39:35;9.30;99.90
35240;DHT22;21376;50.954;4.716;2023-11-18T14:42:03;9.40;99.90
35240;DHT22;21376;50.954;4.716;2023-11-18T14:44:31;9.40;99.90
35240;DHT22;21376;50.954;4.716;2023-11-18T14:46:57;9.40;99.90
35240;DHT22;21376;50.954;4.716;2023-11-18T14:49:24;9.40;99.90
35240;DHT22;21376;50.954;4.716;2023-11-18T14:51:50;9.40;99.90
35240;DHT22;21376;50.954;4.716;2023-11-18T14:54:15;9.40;99.90
35240;DHT22;21376;50.954;4.716;2023-11-18T14:56:41;9.30;99.90
35240;DHT22;21376;50.954;4.716;2023-11-18T14:59:07;9.40;99.90
35240;DHT22;21376;50.954;4.716;2023-11-18T15:01:36;9.40;99.90
35240;DHT22;21376;50.954;4.716;2023-11-18T15:04:05;9.50;99.90
35240;DHT22;21376;50.954;4.716;2023-11-18T15:06:35;9.50;99.90
35240;DHT22;21376;50.954;4.716;2023-11-18T15:09:04;9.50;99.90
35240;DHT22;21376;50.954;4.716;2023-11-18T15:11:33;9.50;99.90
35240;DHT22;21376;50.954;4.716;2023-11-18T15:13:59;9.60;99.90
35240;DHT22;21376;50.954;4.716;2023-11-18T15:16:25;9.70;99.90
35240;DHT22;21376;50.954;4.716;2023-11-18T15:18:51;9.60;99.90
35240;DHT22;21376;50.954;4.716;2023-11-18T15:21:20;9.60;99.90
35240;DHT22;21376;50.954;4.716;2023-11-18T15:23:46;9.70;99.90
35240;DHT22;21376;50.954;4.716;2023-11-18T15:26:13;9.60;99.90
35240;DHT22;21376;50.954;4.716;2023-11-18T15:28:40;9.60;99.90
35240;DHT22;21376;50.954;4.716;2023-11-18T15:31:09;9.70;99.90
35240;DHT22;21376;50.954;4.716;2023-11-18T15:33:52;9.60;99.90
35240;DHT22;21376;50.954;4.716;2023-11-18T15:36:20;9.70;99.90
35240;DHT22;21376;50.954;4.716;2023-11-18T15:38:49;9.60;99.90
35240;DHT22;21376;50.954;4.716;2023-11-18T15:41:18;9.70;99.90
35240;DHT22;21376;50.954;4.716;2023-11-18T15:43:45;9.70;99.90
35240;DHT22;21376;50.954;4.716;2023-11-18T15:46:17;9.80;99.90
35240;DHT22;21376;50.954;4.716;2023-11-18T15:52:07;9.80;99.90
35240;DHT22;21376;50.954;4.716;2023-11-18T15:54:39;9.70;99.90
35240;DHT22;21376;50.954;4.716;2023-11-18T16:00:41;9.80;99.90
35240;DHT22;21376;50.954;4.716;2023-11-18T16:03:11;9.90;99.90
35240;DHT22;21376;50.954;4.716;2023-11-18T16:05:51;9.80;99.90
35240;DHT22;21376;50.954;4.716;2023-11-18T16:08:18;9.80;99.90
35240;DHT22;21376;50.954;4.716;2023-11-18T16:10:48;9.90;99.90
35240;DHT22;21376;50.954;4.716;2023-11-18T16:32:10;10.10;99.90
35240;DHT22;21376;50.954;4.716;2023-11-18T16:34:40;10.10;99.90
35240;DHT22;21376;50.954;4.716;2023-11-18T16:37:07;10.20;99.90
35240;DHT22;21376;50.954;4.716;2023-11-18T16:39:34;10.30;99.90
35240;DHT22;21376;50.954;4.716;2023-11-18T16:42:00;10.40;99.90
35240;DHT22;21376;50.954;4.716;2023-11-18T16:44:27;10.40;99.90
35240;DHT22;21376;50.954;4.716;2023-11-18T16:47:01;10.50;99.90
35240;DHT22;21376;50.954;4.716;2023-11-18T16:49:28;10.60;99.90
35240;DHT22;21376;50.954;4.716;2023-11-18T16:52:01;10.50;99.90
35240;DHT22;21376;50.954;4.716;2023-11-18T16:54:30;10.50;99.90
35240;DHT22;21376;50.954;4.716;2023-11-18T16:56:58;10.60;99.90
35240;DHT22;21376;50.954;4.716;2023-11-18T16:59:26;10.60;99.90
35240;DHT22;21376;50.954;4.716;2023-11-18T17:01:56;10.60;99.90
35240;DHT22;21376;50.954;4.716;2023-11-18T17:04:42;10.60;99.90
35240;DHT22;21376;50.954;4.716;2023-11-18T17:07:08;10.70;99.90
35240;DHT22;21376;50.954;4.716;2023-11-18T17:09:36;10.70;99.90
35240;DHT22;21376;50.954;4.716;2023-11-18T17:12:19;10.70;99.90
35240;DHT22;21376;50.954;4.716;2023-11-18T17:14:50;10.60;99.90
35240;DHT22;21376;50.954;4.716;2023-11-18T17:17:16;10.70;99.90
35240;DHT22;21376;50.954;4.716;2023-11-18T17:19:49;10.70;99.90
35240;DHT22;21376;50.954;4.716;2023-11-18T17:22:15;10.80;99.90
35240;DHT22;21376;50.954;4.716;2023-11-18T17:24:41;10.80;99.90
35240;DHT22;21376;50.954;4.716;2023-11-18T17:27:09;10.80;99.90
35240;DHT22;21376;50.954;4.716;2023-11-18T17:29:36;10.80;99.90
35240;DHT22;21376;50.954;4.716;2023-11-18T17:32:06;10.90;99.90
35240;DHT22;21376;50.954;4.716;2023-11-18T17:34:35;11.00;99.90
35240;DHT22;21376;50.954;4.716;2023-11-18T17:37:08;10.90;99.90
35240;DHT22;21376;50.954;4.716;2023-11-18T17:39:40;11.00;99.90
35240;DHT22;21376;50.954;4.716;2023-11-18T17:42:06;10.90;99.90
35240;DHT22;21376;50.954;4.716;2023-11-18T17:44:32;11.00;99.90
35240;DHT22;21376;50.954;4.716;2023-11-18T17:47:08;11.00;99.90
35240;DHT22;21376;50.954;4.716;2023-11-18T17:49:37;11.10;99.90
35240;DHT22;21376;50.954;4.716;2023-11-18T17:52:07;11.10;99.90
35240;DHT22;21376;50.954;4.716;2023-11-18T17:54:33;11.20;99.90
35240;DHT22;21376;50.954;4.716;2023-11-18T17:57:00;11.10;99.90
35240;DHT22;21376;50.954;4.716;2023-11-18T17:59:29;11.30;99.90
35240;DHT22;21376;50.954;4.716;2023-11-18T18:01:57;11.30;99.90
35240;DHT22;21376;50.954;4.716;2023-11-18T18:04:48;11.20;99.90
35240;DHT22;21376;50.954;4.716;2023-11-18T18:07:17;11.20;99.90
35240;DHT22;21376;50.954;4.716;2023-11-18T18:09:47;11.20;99.90
35240;DHT22;21376;50.954;4.716;2023-11-18T18:12:16;11.20;99.90